sensor_id;sensor_type;location;lat;lon;timestamp;temperature;humidity
70557;DHT22;58107;51.034;3.726;2022-09-12T00:01:17;19.10;93.10
70557;DHT22;58107;51.034;3.726;2022-09-12T00:03:45;19.10;93.10
70557;DHT22;58107;51.034;3.726;2022-09-12T00:06:19;19.20;92.80
70557;DHT22;58107;51.034;3.726;2022-09-12T00:08:47;19.10;93.00
70557;DHT22;58107;51.034;3.726;2022-09-12T00:11:15;19.10;92.70
70557;DHT22;58107;51.034;3.726;2022-09-12T00:13:43;19.20;92.60
70557;DHT22;58107;51.034;3.726;2022-09-12T00:16:16;19.30;92.30
70557;DHT22;58107;51.034;3.726;2022-09-12T00:18:44;19.30;92.20
70557;DHT22;58107;51.034;3.726;2022-09-12T00:21:13;19.20;92.30
70557;DHT22;58107;51.034;3.726;2022-09-12T00:23:41;19.10;92.60
70557;DHT22;58107;51.034;3.726;2022-09-12T00:26:09;18.90;93.30
70557;DHT22;58107;51.034;3.726;2022-09-12T00:28:38;18.80;93.60
70557;DHT22;58107;51.034;3.726;2022-09-12T00:31:15;18.60;94.00
70557;DHT22;58107;51.034;3.726;2022-09-12T00:33:40;18.60;94.20
70557;DHT22;58107;51.034;3.726;2022-09-12T00:36:12;18.80;93.90
70557;DHT22;58107;51.034;3.726;2022-09-12T00:38:41;18.90;93.50
70557;DHT22;58107;51.034;3.726;2022-09-12T00:41:24;19.00;93.10
70557;DHT22;58107;51.034;3.726;2022-09-12T00:43:55;19.00;93.00
70557;DHT22;58107;51.034;3.726;2022-09-12T00:46:46;18.90;93.20
70557;DHT22;58107;51.034;3.726;2022-09-12T00:49:21;19.00;93.10
70557;DHT22;58107;51.034;3.726;2022-09-12T00:52:12;19.00;92.90
70557;DHT22;58107;51.034;3.726;2022-09-12T00:54:21;19.00;92.80
70557;DHT22;58107;51.034;3.726;2022-09-12T00:56:51;19.00;92.80
70557;DHT22;58107;51.034;3.726;2022-09-12T00:59:31;19.00;92.80
70557;DHT22;58107;51.034;3.726;2022-09-12T01:01:55;19.10;92.60
70557;DHT22;58107;51.034;3.726;2022-09-12T01:04:25;19.00;92.70
70557;DHT22;58107;51.034;3.726;2022-09-12T01:06:56;18.60;93.80
70557;DHT22;58107;51.034;3.726;2022-09-12T01:09:25;18.40;94.30
70557;DHT22;58107;51.034;3.726;2022-09-12T01:11:54;18.40;94.30
70557;DHT22;58107;51.034;3.726;2022-09-12T01:14:22;18.40;94.30
70557;DHT22;58107;51.034;3.726;2022-09-12T01:16:50;18.50;94.20
70557;DHT22;58107;51.034;3.726;2022-09-12T01:25:08;18.50;94.10
70557;DHT22;58107;51.034;3.726;2022-09-12T01:30:32;18.60;93.80
70557;DHT22;58107;51.034;3.726;2022-09-12T01:33:21;18.50;94.00
70557;DHT22;58107;51.034;3.726;2022-09-12T01:38:47;18.50;94.00
70557;DHT22;58107;51.034;3.726;2022-09-12T01:41:24;18.60;93.80
70557;DHT22;58107;51.034;3.726;2022-09-12T01:44:20;18.40;94.40
70557;DHT22;58107;51.034;3.726;2022-09-12T01:46:46;18.20;94.80
70557;DHT22;58107;51.034;3.726;2022-09-12T01:49:44;18.10;95.30
70557;DHT22;58107;51.034;3.726;2022-09-12T01:52:17;17.90;95.70
70557;DHT22;58107;51.034;3.726;2022-09-12T01:54:54;17.80;96.10
70557;DHT22;58107;51.034;3.726;2022-09-12T01:57:46;17.70;96.40
70557;DHT22;58107;51.034;3.726;2022-09-12T02:00:11;17.60;97.00
70557;DHT22;58107;51.034;3.726;2022-09-12T02:02:43;17.40;97.50
70557;DHT22;58107;51.034;3.726;2022-09-12T02:05:24;17.30;97.80
70557;DHT22;58107;51.034;3.726;2022-09-12T02:07:44;17.30;97.90
70557;DHT22;58107;51.034;3.726;2022-09-12T02:10:22;17.40;97.70
70557;DHT22;58107;51.034;3.726;2022-09-12T02:12:49;17.50;97.60
70557;DHT22;58107;51.034;3.726;2022-09-12T02:15:20;17.80;97.00
70557;DHT22;58107;51.034;3.726;2022-09-12T02:17:49;17.90;96.30
70557;DHT22;58107;51.034;3.726;2022-09-12T02:20:21;18.10;95.90
70557;DHT22;58107;51.034;3.726;2022-09-12T02:22:50;18.10;95.80
70557;DHT22;58107;51.034;3.726;2022-09-12T02:25:20;18.00;95.90
70557;DHT22;58107;51.034;3.726;2022-09-12T02:27:52;18.10;95.60
70557;DHT22;58107;51.034;3.726;2022-09-12T02:30:20;18.00;95.70
70557;DHT22;58107;51.034;3.726;2022-09-12T02:35:33;17.90;96.20
70557;DHT22;58107;51.034;3.726;2022-09-12T02:38:06;17.90;95.90
70557;DHT22;58107;51.034;3.726;2022-09-12T02:40:34;17.90;96.00
70557;DHT22;58107;51.034;3.726;2022-09-12T02:43:04;17.60;96.60
70557;DHT22;58107;51.034;3.726;2022-09-12T02:45:32;17.50;97.00
70557;DHT22;58107;51.034;3.726;2022-09-12T02:48:21;17.40;97.20
70557;DHT22;58107;51.034;3.726;2022-09-12T02:50:49;17.60;97.00
70557;DHT22;58107;51.034;3.726;2022-09-12T02:53:17;17.70;96.50
70557;DHT22;58107;51.034;3.726;2022-09-12T02:55:45;17.90;96.20
70557;DHT22;58107;51.034;3.726;2022-09-12T02:58:16;17.90;95.90
70557;DHT22;58107;51.034;3.726;2022-09-12T03:01:20;18.00;95.70
70557;DHT22;58107;51.034;3.726;2022-09-12T03:07:10;18.10;95.40
70557;DHT22;58107;51.034;3.726;2022-09-12T03:17:44;17.90;95.80
70557;DHT22;58107;51.034;3.726;2022-09-12T03:22:51;17.90;95.70
70557;DHT22;58107;51.034;3.726;2022-09-12T03:30:25;17.90;95.80
70557;DHT22;58107;51.034;3.726;2022-09-12T03:32:53;17.80;96.00
70557;DHT22;58107;51.034;3.726;2022-09-12T03:35:23;17.80;96.10
70557;DHT22;58107;51.034;3.726;2022-09-12T03:37:51;17.70;96.70
70557;DHT22;58107;51.034;3.726;2022-09-12T03:40:19;17.70;96.30
70557;DHT22;58107;51.034;3.726;2022-09-12T03:42:47;17.60;96.60
70557;DHT22;58107;51.034;3.726;2022-09-12T03:45:15;17.50;96.80
70557;DHT22;58107;51.034;3.726;2022-09-12T03:47:43;17.50;97.10
70557;DHT22;58107;51.034;3.726;2022-09-12T03:50:11;17.50;96.90
70557;DHT22;58107;51.034;3.726;2022-09-12T03:52:39;17.50;96.90
70557;DHT22;58107;51.034;3.726;2022-09-12T03:55:07;17.50;96.80
70557;DHT22;58107;51.034;3.726;2022-09-12T03:57:35;17.60;96.70
70557;DHT22;58107;51.034;3.726;2022-09-12T04:00:04;17.60;96.70
70557;DHT22;58107;51.034;3.726;2022-09-12T04:02:34;17.70;96.60
70557;DHT22;58107;51.034;3.726;2022-09-12T04:05:02;17.60;96.50
70557;DHT22;58107;51.034;3.726;2022-09-12T04:07:30;17.70;96.50
70557;DHT22;58107;51.034;3.726;2022-09-12T04:09:58;17.70;96.40
70557;DHT22;58107;51.034;3.726;2022-09-12T04:12:28;17.80;96.50
70557;DHT22;58107;51.034;3.726;2022-09-12T04:14:58;17.70;96.20
70557;DHT22;58107;51.034;3.726;2022-09-12T04:17:25;17.80;96.00
70557;DHT22;58107;51.034;3.726;2022-09-12T04:19:53;17.80;95.90
70557;DHT22;58107;51.034;3.726;2022-09-12T04:22:21;17.80;96.00
70557;DHT22;58107;51.034;3.726;2022-09-12T04:24:49;17.80;96.20
70557;DHT22;58107;51.034;3.726;2022-09-12T04:27:17;17.80;96.10
70557;DHT22;58107;51.034;3.726;2022-09-12T04:29:44;17.80;96.00
70557;DHT22;58107;51.034;3.726;2022-09-12T04:32:12;17.70;96.20
70557;DHT22;58107;51.034;3.726;2022-09-12T04:34:40;17.70;96.20
70557;DHT22;58107;51.034;3.726;2022-09-12T04:37:08;17.60;96.20
70557;DHT22;58107;51.034;3.726;2022-09-12T04:39:38;17.60;96.20
70557;DHT22;58107;51.034;3.726;2022-09-12T04:42:06;17.60;96.30
70557;DHT22;58107;51.034;3.726;2022-09-12T04:44:34;17.70;96.20
70557;DHT22;58107;51.034;3.726;2022-09-12T04:47:02;17.70;96.10
70557;DHT22;58107;51.034;3.726;2022-09-12T04:49:30;17.70;96.10
70557;DHT22;58107;51.034;3.726;2022-09-12T04:51:58;17.80;95.90
70557;DHT22;58107;51.034;3.726;2022-09-12T04:54:26;17.70;96.10
70557;DHT22;58107;51.034;3.726;2022-09-12T04:56:54;17.70;96.00
70557;DHT22;58107;51.034;3.726;2022-09-12T04:59:23;17.70;96.00
70557;DHT22;58107;51.034;3.726;2022-09-12T05:01:51;17.60;96.30
70557;DHT22;58107;51.034;3.726;2022-09-12T05:04:19;17.60;96.10
70557;DHT22;58107;51.034;3.726;2022-09-12T05:06:47;17.70;96.00
70557;DHT22;58107;51.034;3.726;2022-09-12T05:09:15;17.70;95.80
70557;DHT22;58107;51.034;3.726;2022-09-12T05:11:44;17.60;95.80
70557;DHT22;58107;51.034;3.726;2022-09-12T05:14:11;17.50;96.20
70557;DHT22;58107;51.034;3.726;2022-09-12T05:16:39;17.60;96.00
70557;DHT22;58107;51.034;3.726;2022-09-12T05:19:08;17.60;95.80
70557;DHT22;58107;51.034;3.726;2022-09-12T05:21:36;17.40;96.00
70557;DHT22;58107;51.034;3.726;2022-09-12T05:24:04;17.30;96.50
70557;DHT22;58107;51.034;3.726;2022-09-12T05:26:32;17.40;96.50
70557;DHT22;58107;51.034;3.726;2022-09-12T05:29:00;17.30;96.40
70557;DHT22;58107;51.034;3.726;2022-09-12T05:31:28;17.30;96.30
70557;DHT22;58107;51.034;3.726;2022-09-12T05:33:56;17.30;96.50
70557;DHT22;58107;51.034;3.726;2022-09-12T05:36:26;17.30;96.30
70557;DHT22;58107;51.034;3.726;2022-09-12T05:38:55;17.30;96.40
70557;DHT22;58107;51.034;3.726;2022-09-12T05:41:25;17.30;96.40
70557;DHT22;58107;51.034;3.726;2022-09-12T05:43:56;17.20;96.60
70557;DHT22;58107;51.034;3.726;2022-09-12T05:46:26;17.00;97.00
70557;DHT22;58107;51.034;3.726;2022-09-12T05:48:55;16.80;97.70
70557;DHT22;58107;51.034;3.726;2022-09-12T05:51:26;16.80;98.00
70557;DHT22;58107;51.034;3.726;2022-09-12T05:53:56;16.70;98.00
70557;DHT22;58107;51.034;3.726;2022-09-12T05:56:26;16.70;98.10
70557;DHT22;58107;51.034;3.726;2022-09-12T05:59:00;16.70;98.20
70557;DHT22;58107;51.034;3.726;2022-09-12T06:01:29;16.70;98.40
70557;DHT22;58107;51.034;3.726;2022-09-12T06:03:59;16.80;98.20
70557;DHT22;58107;51.034;3.726;2022-09-12T06:06:29;17.00;97.80
70557;DHT22;58107;51.034;3.726;2022-09-12T06:08:59;17.00;97.70
70557;DHT22;58107;51.034;3.726;2022-09-12T06:11:29;17.00;97.70
70557;DHT22;58107;51.034;3.726;2022-09-12T06:13:59;16.90;98.10
70557;DHT22;58107;51.034;3.726;2022-09-12T06:16:29;16.80;98.20
70557;DHT22;58107;51.034;3.726;2022-09-12T06:18:59;16.90;98.30
70557;DHT22;58107;51.034;3.726;2022-09-12T06:21:28;16.90;98.30
70557;DHT22;58107;51.034;3.726;2022-09-12T06:23:58;16.90;98.30
70557;DHT22;58107;51.034;3.726;2022-09-12T06:26:26;16.90;98.20
70557;DHT22;58107;51.034;3.726;2022-09-12T06:28:56;17.20;97.80
70557;DHT22;58107;51.034;3.726;2022-09-12T06:31:27;17.20;97.50
70557;DHT22;58107;51.034;3.726;2022-09-12T06:33:55;17.20;97.40
70557;DHT22;58107;51.034;3.726;2022-09-12T06:36:29;17.20;97.30
70557;DHT22;58107;51.034;3.726;2022-09-12T06:38:59;17.20;97.30
70557;DHT22;58107;51.034;3.726;2022-09-12T06:41:29;17.20;97.20
70557;DHT22;58107;51.034;3.726;2022-09-12T06:43:57;17.20;97.20
70557;DHT22;58107;51.034;3.726;2022-09-12T06:46:26;17.10;97.30
70557;DHT22;58107;51.034;3.726;2022-09-12T06:48:58;17.10;97.50
70557;DHT22;58107;51.034;3.726;2022-09-12T06:51:27;17.10;97.60
70557;DHT22;58107;51.034;3.726;2022-09-12T06:53:56;17.10;97.40
70557;DHT22;58107;51.034;3.726;2022-09-12T06:56:26;17.10;97.40
70557;DHT22;58107;51.034;3.726;2022-09-12T06:58:56;17.20;97.40
70557;DHT22;58107;51.034;3.726;2022-09-12T07:01:30;17.30;97.20
70557;DHT22;58107;51.034;3.726;2022-09-12T07:04:00;17.30;96.90
70557;DHT22;58107;51.034;3.726;2022-09-12T07:06:33;17.50;96.80
70557;DHT22;58107;51.034;3.726;2022-09-12T07:09:01;17.50;96.80
70557;DHT22;58107;51.034;3.726;2022-09-12T07:11:32;17.80;96.20
70557;DHT22;58107;51.034;3.726;2022-09-12T07:14:02;18.00;95.30
70557;DHT22;58107;51.034;3.726;2022-09-12T07:16:30;18.20;94.90
70557;DHT22;58107;51.034;3.726;2022-09-12T07:19:02;18.70;93.90
70557;DHT22;58107;51.034;3.726;2022-09-12T07:21:30;19.10;93.50
70557;DHT22;58107;51.034;3.726;2022-09-12T07:23:59;19.60;92.20
70557;DHT22;58107;51.034;3.726;2022-09-12T07:26:28;19.90;91.30
70557;DHT22;58107;51.034;3.726;2022-09-12T07:28:56;20.00;90.70
70557;DHT22;58107;51.034;3.726;2022-09-12T07:31:26;20.00;90.20
70557;DHT22;58107;51.034;3.726;2022-09-12T07:33:54;19.80;91.00
70557;DHT22;58107;51.034;3.726;2022-09-12T07:36:23;20.40;90.20
70557;DHT22;58107;51.034;3.726;2022-09-12T07:38:55;20.70;88.40
70557;DHT22;58107;51.034;3.726;2022-09-12T07:41:31;21.40;86.10
70557;DHT22;58107;51.034;3.726;2022-09-12T07:44:02;21.50;84.00
70557;DHT22;58107;51.034;3.726;2022-09-12T07:46:31;21.40;83.60
70557;DHT22;58107;51.034;3.726;2022-09-12T07:49:00;21.30;84.80
70557;DHT22;58107;51.034;3.726;2022-09-12T07:51:29;21.30;83.00
70557;DHT22;58107;51.034;3.726;2022-09-12T07:53:57;20.60;85.30
70557;DHT22;58107;51.034;3.726;2022-09-12T07:56:26;20.10;87.60
70557;DHT22;58107;51.034;3.726;2022-09-12T07:58:55;19.70;90.20
70557;DHT22;58107;51.034;3.726;2022-09-12T08:01:23;19.90;90.00
70557;DHT22;58107;51.034;3.726;2022-09-12T08:03:56;20.20;89.40
70557;DHT22;58107;51.034;3.726;2022-09-12T08:06:27;20.20;88.80
70557;DHT22;58107;51.034;3.726;2022-09-12T08:08:58;21.20;86.20
70557;DHT22;58107;51.034;3.726;2022-09-12T08:11:29;22.60;81.10
70557;DHT22;58107;51.034;3.726;2022-09-12T08:13:57;23.50;75.30
70557;DHT22;58107;51.034;3.726;2022-09-12T08:16:27;23.50;74.40
70557;DHT22;58107;51.034;3.726;2022-09-12T08:18:57;23.80;72.40
70557;DHT22;58107;51.034;3.726;2022-09-12T08:21:28;24.30;70.10
70557;DHT22;58107;51.034;3.726;2022-09-12T08:23:59;25.30;66.10
70557;DHT22;58107;51.034;3.726;2022-09-12T08:26:27;25.40;62.10
70557;DHT22;58107;51.034;3.726;2022-09-12T08:28:55;23.80;67.20
70557;DHT22;58107;51.034;3.726;2022-09-12T08:31:24;22.90;72.40
70557;DHT22;58107;51.034;3.726;2022-09-12T08:33:54;22.20;75.30
70557;DHT22;58107;51.034;3.726;2022-09-12T08:36:24;22.40;75.00
70557;DHT22;58107;51.034;3.726;2022-09-12T08:39:04;21.50;77.60
70557;DHT22;58107;51.034;3.726;2022-09-12T08:41:43;21.10;79.60
70557;DHT22;58107;51.034;3.726;2022-09-12T08:55:15;20.40;84.20
70557;DHT22;58107;51.034;3.726;2022-09-12T08:57:40;20.30;85.00
70557;DHT22;58107;51.034;3.726;2022-09-12T09:00:11;20.50;84.20
70557;DHT22;58107;51.034;3.726;2022-09-12T09:03:13;20.80;82.70
70557;DHT22;58107;51.034;3.726;2022-09-12T09:05:44;20.50;84.20
70557;DHT22;58107;51.034;3.726;2022-09-12T09:13:33;20.10;85.70
70557;DHT22;58107;51.034;3.726;2022-09-12T09:19:24;20.40;85.90
70557;DHT22;58107;51.034;3.726;2022-09-12T09:22:09;20.30;85.70
70557;DHT22;58107;51.034;3.726;2022-09-12T09:24:42;20.40;85.90
70557;DHT22;58107;51.034;3.726;2022-09-12T09:27:12;20.50;84.40
70557;DHT22;58107;51.034;3.726;2022-09-12T09:29:44;20.60;84.90
70557;DHT22;58107;51.034;3.726;2022-09-12T09:32:18;20.70;84.20
70557;DHT22;58107;51.034;3.726;2022-09-12T09:34:47;20.80;83.30
70557;DHT22;58107;51.034;3.726;2022-09-12T09:37:26;20.80;84.40
70557;DHT22;58107;51.034;3.726;2022-09-12T09:40:15;20.80;84.90
70557;DHT22;58107;51.034;3.726;2022-09-12T09:42:56;20.80;84.50
70557;DHT22;58107;51.034;3.726;2022-09-12T09:45:24;20.90;83.10
70557;DHT22;58107;51.034;3.726;2022-09-12T09:50:36;21.30;80.30
70557;DHT22;58107;51.034;3.726;2022-09-12T09:53:05;21.10;80.30
70557;DHT22;58107;51.034;3.726;2022-09-12T09:55:37;20.90;81.50
70557;DHT22;58107;51.034;3.726;2022-09-12T09:58:05;20.80;82.10
70557;DHT22;58107;51.034;3.726;2022-09-12T10:00:35;20.90;82.00
70557;DHT22;58107;51.034;3.726;2022-09-12T10:03:06;21.00;82.00
70557;DHT22;58107;51.034;3.726;2022-09-12T10:05:57;21.00;81.80
70557;DHT22;58107;51.034;3.726;2022-09-12T10:08:28;21.20;81.90
70557;DHT22;58107;51.034;3.726;2022-09-12T10:11:02;21.50;81.00
70557;DHT22;58107;51.034;3.726;2022-09-12T10:13:33;21.40;80.40
70557;DHT22;58107;51.034;3.726;2022-09-12T10:16:06;21.40;80.10
70557;DHT22;58107;51.034;3.726;2022-09-12T10:18:36;21.50;80.10
70557;DHT22;58107;51.034;3.726;2022-09-12T10:21:20;21.60;79.90
70557;DHT22;58107;51.034;3.726;2022-09-12T10:23:56;22.00;78.00
70557;DHT22;58107;51.034;3.726;2022-09-12T10:26:21;22.20;77.00
70557;DHT22;58107;51.034;3.726;2022-09-12T10:28:52;22.00;77.50
70557;DHT22;58107;51.034;3.726;2022-09-12T10:31:41;22.00;77.90
70557;DHT22;58107;51.034;3.726;2022-09-12T10:33:59;21.90;77.10
70557;DHT22;58107;51.034;3.726;2022-09-12T10:36:35;21.90;77.50
70557;DHT22;58107;51.034;3.726;2022-09-12T10:39:05;22.00;77.10
70557;DHT22;58107;51.034;3.726;2022-09-12T10:41:38;22.30;76.90
70557;DHT22;58107;51.034;3.726;2022-09-12T10:44:14;22.30;75.70
70557;DHT22;58107;51.034;3.726;2022-09-12T10:46:41;22.30;75.10
70557;DHT22;58107;51.034;3.726;2022-09-12T10:49:20;22.30;75.40
70557;DHT22;58107;51.034;3.726;2022-09-12T10:51:50;22.40;74.40
70557;DHT22;58107;51.034;3.726;2022-09-12T10:54:23;22.30;74.90
70557;DHT22;58107;51.034;3.726;2022-09-12T11:00:14;22.50;75.10
70557;DHT22;58107;51.034;3.726;2022-09-12T11:08:30;23.60;71.10
70557;DHT22;58107;51.034;3.726;2022-09-12T11:13:57;26.00;62.00
70557;DHT22;58107;51.034;3.726;2022-09-12T11:16:39;27.50;57.50
70557;DHT22;58107;51.034;3.726;2022-09-12T11:19:17;28.00;55.80
70557;DHT22;58107;51.034;3.726;2022-09-12T11:22:05;29.40;52.20
70557;DHT22;58107;51.034;3.726;2022-09-12T11:24:41;29.20;51.00
70557;DHT22;58107;51.034;3.726;2022-09-12T11:30:02;31.40;46.60
70557;DHT22;58107;51.034;3.726;2022-09-12T11:32:34;32.10;44.30
70557;DHT22;58107;51.034;3.726;2022-09-12T11:35:15;30.70;46.30
70557;DHT22;58107;51.034;3.726;2022-09-12T11:38:13;31.90;43.60
70557;DHT22;58107;51.034;3.726;2022-09-12T11:40:55;31.70;43.70
70557;DHT22;58107;51.034;3.726;2022-09-12T11:46:05;30.20;46.80
70557;DHT22;58107;51.034;3.726;2022-09-12T11:48:43;31.60;44.70
70557;DHT22;58107;51.034;3.726;2022-09-12T11:51:15;31.80;43.20
70557;DHT22;58107;51.034;3.726;2022-09-12T11:53:42;30.50;44.60
70557;DHT22;58107;51.034;3.726;2022-09-12T11:56:18;29.10;47.30
70557;DHT22;58107;51.034;3.726;2022-09-12T11:58:56;28.50;48.90
70557;DHT22;58107;51.034;3.726;2022-09-12T12:01:22;28.80;48.50
70557;DHT22;58107;51.034;3.726;2022-09-12T12:03:50;29.70;46.70
70557;DHT22;58107;51.034;3.726;2022-09-12T12:06:31;30.90;44.20
70557;DHT22;58107;51.034;3.726;2022-09-12T12:08:59;31.50;43.20
70557;DHT22;58107;51.034;3.726;2022-09-12T12:11:39;31.70;41.80
70557;DHT22;58107;51.034;3.726;2022-09-12T12:14:12;30.80;42.90
70557;DHT22;58107;51.034;3.726;2022-09-12T12:16:41;31.40;42.20
70557;DHT22;58107;51.034;3.726;2022-09-12T12:21:47;33.00;39.60
70557;DHT22;58107;51.034;3.726;2022-09-12T12:24:20;33.60;37.40
70557;DHT22;58107;51.034;3.726;2022-09-12T12:34:34;32.20;39.90
70557;DHT22;58107;51.034;3.726;2022-09-12T12:39:57;32.10;40.00
70557;DHT22;58107;51.034;3.726;2022-09-12T12:47:42;30.70;41.70
70557;DHT22;58107;51.034;3.726;2022-09-12T12:55:25;31.80;39.90
70557;DHT22;58107;51.034;3.726;2022-09-12T12:57:56;31.50;40.30
70557;DHT22;58107;51.034;3.726;2022-09-12T13:00:27;31.00;41.20
70557;DHT22;58107;51.034;3.726;2022-09-12T13:05:44;32.00;39.50
70557;DHT22;58107;51.034;3.726;2022-09-12T13:10:55;31.80;39.20
70557;DHT22;58107;51.034;3.726;2022-09-12T13:13:31;30.70;41.60
70557;DHT22;58107;51.034;3.726;2022-09-12T13:16:00;29.90;43.40
70557;DHT22;58107;51.034;3.726;2022-09-12T13:18:45;30.40;42.90
70557;DHT22;58107;51.034;3.726;2022-09-12T13:21:16;30.60;42.70
70557;DHT22;58107;51.034;3.726;2022-09-12T13:23:57;30.80;41.90
70557;DHT22;58107;51.034;3.726;2022-09-12T13:26:23;30.40;42.20
70557;DHT22;58107;51.034;3.726;2022-09-12T13:28:48;30.40;42.50
70557;DHT22;58107;51.034;3.726;2022-09-12T13:31:22;30.70;41.80
70557;DHT22;58107;51.034;3.726;2022-09-12T13:33:55;30.00;43.10
70557;DHT22;58107;51.034;3.726;2022-09-12T13:41:42;30.10;43.00
70557;DHT22;58107;51.034;3.726;2022-09-12T13:44:12;30.80;41.50
70557;DHT22;58107;51.034;3.726;2022-09-12T13:46:41;31.10;40.70
70557;DHT22;58107;51.034;3.726;2022-09-12T13:49:21;31.00;41.60
70557;DHT22;58107;51.034;3.726;2022-09-12T13:51:57;31.80;39.80
70557;DHT22;58107;51.034;3.726;2022-09-12T13:54:23;32.80;38.20
70557;DHT22;58107;51.034;3.726;2022-09-12T13:56:51;32.80;37.20
70557;DHT22;58107;51.034;3.726;2022-09-12T13:59:20;32.60;37.20
70557;DHT22;58107;51.034;3.726;2022-09-12T14:01:48;31.40;39.50
70557;DHT22;58107;51.034;3.726;2022-09-12T14:04:19;30.10;41.10
70557;DHT22;58107;51.034;3.726;2022-09-12T14:07:22;29.30;42.80
70557;DHT22;58107;51.034;3.726;2022-09-12T14:09:55;29.10;43.70
70557;DHT22;58107;51.034;3.726;2022-09-12T14:12:33;28.50;45.70
70557;DHT22;58107;51.034;3.726;2022-09-12T14:15:00;28.40;45.80
70557;DHT22;58107;51.034;3.726;2022-09-12T14:17:33;28.40;46.50
70557;DHT22;58107;51.034;3.726;2022-09-12T14:20:13;28.50;45.80
70557;DHT22;58107;51.034;3.726;2022-09-12T14:22:43;29.30;44.70
70557;DHT22;58107;51.034;3.726;2022-09-12T14:25:22;29.10;44.30
70557;DHT22;58107;51.034;3.726;2022-09-12T14:27:54;28.80;44.30
70557;DHT22;58107;51.034;3.726;2022-09-12T14:30:24;28.40;45.00
70557;DHT22;58107;51.034;3.726;2022-09-12T14:35:50;28.70;44.80
70557;DHT22;58107;51.034;3.726;2022-09-12T14:41:00;28.60;44.90
70557;DHT22;58107;51.034;3.726;2022-09-12T14:43:31;28.60;44.70
70557;DHT22;58107;51.034;3.726;2022-09-12T14:46:05;28.80;44.40
70557;DHT22;58107;51.034;3.726;2022-09-12T14:48:40;28.90;44.50
70557;DHT22;58107;51.034;3.726;2022-09-12T14:51:06;28.90;44.50
70557;DHT22;58107;51.034;3.726;2022-09-12T14:53:35;28.40;44.70
70557;DHT22;58107;51.034;3.726;2022-09-12T14:56:11;28.20;44.70
70557;DHT22;58107;51.034;3.726;2022-09-12T14:58:41;27.90;45.40
70557;DHT22;58107;51.034;3.726;2022-09-12T15:06:34;28.00;45.80
70557;DHT22;58107;51.034;3.726;2022-09-12T15:09:06;28.20;45.10
70557;DHT22;58107;51.034;3.726;2022-09-12T15:11:34;28.10;45.00
70557;DHT22;58107;51.034;3.726;2022-09-12T15:14:14;28.10;45.20
70557;DHT22;58107;51.034;3.726;2022-09-12T15:16:43;28.10;45.20
70557;DHT22;58107;51.034;3.726;2022-09-12T15:19:10;27.90;45.30
70557;DHT22;58107;51.034;3.726;2022-09-12T15:21:39;27.80;46.10
70557;DHT22;58107;51.034;3.726;2022-09-12T15:24:08;27.90;46.00
70557;DHT22;58107;51.034;3.726;2022-09-12T15:26:35;28.00;45.60
70557;DHT22;58107;51.034;3.726;2022-09-12T15:29:04;28.20;45.60
70557;DHT22;58107;51.034;3.726;2022-09-12T15:31:32;28.40;45.20
70557;DHT22;58107;51.034;3.726;2022-09-12T15:34:01;28.40;45.10
70557;DHT22;58107;51.034;3.726;2022-09-12T15:36:29;28.50;45.00
70557;DHT22;58107;51.034;3.726;2022-09-12T15:38:57;28.20;44.80
70557;DHT22;58107;51.034;3.726;2022-09-12T15:41:33;28.00;45.10
70557;DHT22;58107;51.034;3.726;2022-09-12T15:44:06;28.00;45.60
70557;DHT22;58107;51.034;3.726;2022-09-12T15:46:36;28.00;45.70
70557;DHT22;58107;51.034;3.726;2022-09-12T15:49:04;27.80;46.00
70557;DHT22;58107;51.034;3.726;2022-09-12T15:51:32;27.70;46.50
70557;DHT22;58107;51.034;3.726;2022-09-12T15:54:02;27.70;46.60
70557;DHT22;58107;51.034;3.726;2022-09-12T15:56:31;27.50;46.60
70557;DHT22;58107;51.034;3.726;2022-09-12T15:58:59;27.70;46.60
70557;DHT22;58107;51.034;3.726;2022-09-12T16:01:28;27.60;46.00
70557;DHT22;58107;51.034;3.726;2022-09-12T16:03:55;27.70;46.20
70557;DHT22;58107;51.034;3.726;2022-09-12T16:06:23;27.50;46.20
70557;DHT22;58107;51.034;3.726;2022-09-12T16:08:51;27.40;47.10
70557;DHT22;58107;51.034;3.726;2022-09-12T16:11:25;27.50;46.60
70557;DHT22;58107;51.034;3.726;2022-09-12T16:13:54;27.30;46.90
70557;DHT22;58107;51.034;3.726;2022-09-12T16:16:22;27.50;46.80
70557;DHT22;58107;51.034;3.726;2022-09-12T16:18:50;27.50;46.70
70557;DHT22;58107;51.034;3.726;2022-09-12T16:21:18;27.30;46.80
70557;DHT22;58107;51.034;3.726;2022-09-12T16:23:46;27.20;47.40
70557;DHT22;58107;51.034;3.726;2022-09-12T16:26:15;27.20;47.70
70557;DHT22;58107;51.034;3.726;2022-09-12T16:28:43;27.30;47.80
70557;DHT22;58107;51.034;3.726;2022-09-12T16:31:12;27.30;47.60
70557;DHT22;58107;51.034;3.726;2022-09-12T16:33:40;27.20;47.90
70557;DHT22;58107;51.034;3.726;2022-09-12T16:36:09;27.30;48.10
70557;DHT22;58107;51.034;3.726;2022-09-12T16:38:51;27.20;47.50
70557;DHT22;58107;51.034;3.726;2022-09-12T16:41:23;27.30;47.70
70557;DHT22;58107;51.034;3.726;2022-09-12T16:43:52;27.50;47.10
70557;DHT22;58107;51.034;3.726;2022-09-12T16:46:22;27.40;47.50
70557;DHT22;58107;51.034;3.726;2022-09-12T16:48:55;27.30;48.10
70557;DHT22;58107;51.034;3.726;2022-09-12T16:51:32;27.30;47.80
70557;DHT22;58107;51.034;3.726;2022-09-12T16:54:02;27.10;48.40
70557;DHT22;58107;51.034;3.726;2022-09-12T16:56:30;26.90;48.70
70557;DHT22;58107;51.034;3.726;2022-09-12T16:58:58;26.90;48.50
70557;DHT22;58107;51.034;3.726;2022-09-12T17:01:26;26.80;48.60
70557;DHT22;58107;51.034;3.726;2022-09-12T17:03:55;26.70;48.90
70557;DHT22;58107;51.034;3.726;2022-09-12T17:06:24;26.80;49.00
70557;DHT22;58107;51.034;3.726;2022-09-12T17:08:54;26.70;48.70
70557;DHT22;58107;51.034;3.726;2022-09-12T17:11:29;26.50;49.00
70557;DHT22;58107;51.034;3.726;2022-09-12T17:13:58;26.40;49.50
70557;DHT22;58107;51.034;3.726;2022-09-12T17:16:27;26.30;49.80
70557;DHT22;58107;51.034;3.726;2022-09-12T17:18:55;26.30;49.90
70557;DHT22;58107;51.034;3.726;2022-09-12T17:21:23;26.30;50.00
70557;DHT22;58107;51.034;3.726;2022-09-12T17:23:51;26.30;49.90
70557;DHT22;58107;51.034;3.726;2022-09-12T17:26:19;26.30;50.10
70557;DHT22;58107;51.034;3.726;2022-09-12T17:28:47;26.50;49.80
70557;DHT22;58107;51.034;3.726;2022-09-12T17:31:15;26.50;50.00
70557;DHT22;58107;51.034;3.726;2022-09-12T17:33:42;26.40;50.10
70557;DHT22;58107;51.034;3.726;2022-09-12T17:36:12;26.40;50.30
70557;DHT22;58107;51.034;3.726;2022-09-12T17:38:41;26.20;50.50
70557;DHT22;58107;51.034;3.726;2022-09-12T17:41:15;26.30;50.60
70557;DHT22;58107;51.034;3.726;2022-09-12T17:43:44;26.40;50.40
70557;DHT22;58107;51.034;3.726;2022-09-12T17:46:13;26.50;50.10
70557;DHT22;58107;51.034;3.726;2022-09-12T17:48:41;26.50;50.10
70557;DHT22;58107;51.034;3.726;2022-09-12T17:51:11;26.40;50.20
70557;DHT22;58107;51.034;3.726;2022-09-12T17:53:40;26.20;50.70